Time;durP1;ratioP1;P1;durP2;ratioP2;P2;SDS_P1;SDS_P2;PMS_P1;PMS_P2;Temp;Humidity;BMP_temperature;BMP_pressure;BME280_temperature;BME280_humidity;BME280_pressure;Samples;Min_cycle;Max_cycle;Signal;HPM_P1;HPM_P2
2023/10/23 00:01:20;;;;;;;;;16.00;14.00;;;;;19.08;84.18;101141.75;146623;664;46020;-66
2023/10/23 00:04:18;;;;;;;;;11.00;11.00;;;;;19.05;83.64;101135.53;146620;576;46012;-66
2023/10/23 00:07:31;;;;;;;;;13.50;11.25;;;;;19.04;83.21;101128.50;146621;569;46020;-65
2023/10/23 00:10:40;;;;;;;;;11.33;9.67;;;;;19.03;83.01;101130.22;146620;616;46016;-65
2023/10/23 00:13:52;;;;;;;;;11.00;10.00;;;;;19.05;83.92;101138.16;146624;569;46020;-67
2023/10/23 00:16:56;;;;;;;;;15.00;12.67;;;;;19.10;83.73;101136.53;146619;574;46911;-67
2023/10/23 00:19:58;;;;;;;;;12.33;12.00;;;;;19.15;83.82;101135.75;146623;681;47026;-65
2023/10/23 00:23:07;;;;;;;;;13.00;11.00;;;;;19.16;83.28;101128.78;146610;597;48016;-66
2023/10/23 00:26:04;;;;;;;;;14.00;11.67;;;;;19.11;83.30;101133.94;146621;591;46021;-67
2023/10/23 00:29:08;;;;;;;;;;;;;;;;;;;;;
2023/10/23 00:32:17;;;;;;;;;11.00;9.67;;;;;19.04;82.57;101131.16;146623;601;46021;-67
2023/10/23 00:35:17;;;;;;;;;14.00;12.00;;;;;18.98;82.61;101124.00;146619;622;46016;-66
2023/10/23 00:38:21;;;;;;;;;17.00;15.00;;;;;18.96;83.33;101130.94;146623;574;46020;-66
2023/10/23 00:41:16;;;;;;;;;18.67;14.33;;;;;18.97;83.57;101123.94;146618;613;46017;-66
2023/10/23 00:44:14;;;;;;;;;16.00;11.67;;;;;18.95;83.12;101126.56;146624;589;45020;-67
2023/10/23 00:47:30;;;;;;;;;14.67;12.00;;;;;18.97;83.47;101138.00;146620;706;46023;-65
2023/10/23 00:50:40;;;;;;;;;13.00;12.00;;;;;18.15;83.63;100990.66;146622;563;46020;-65
2023/10/23 00:53:46;;;;;;;;;14.00;13.00;;;;;18.96;83.66;101130.06;146619;616;47013;-65
2023/10/23 00:56:48;;;;;;;;;17.00;12.67;;;;;18.91;84.28;101128.22;146621;645;47014;-64
2023/10/23 00:59:43;;;;;;;;;14.67;9.67;;;;;18.86;84.57;101129.84;146617;583;46016;-65
2023/10/23 01:02:38;;;;;;;;;16.00;12.00;;;;;18.83;84.20;101131.50;146625;595;47011;-65
2023/10/23 01:05:36;;;;;;;;;12.33;10.00;;;;;18.77;83.75;101132.25;146619;631;46915;-66
2023/10/23 01:08:34;;;;;;;;;13.33;11.00;;;;;18.74;83.43;101123.41;146622;647;47011;-65
2023/10/23 01:11:29;;;;;;;;;10.67;9.67;;;;;18.67;83.94;101119.72;146617;568;46016;-65
2023/10/23 01:14:29;;;;;;;;;13.33;9.67;;;;;18.62;83.38;101116.06;146621;634;46020;-65
2023/10/23 01:17:25;;;;;;;;;16.33;11.00;;;;;18.59;83.86;101118.63;146622;570;46033;-64
2023/10/23 01:20:22;;;;;;;;;10.67;9.67;;;;;18.55;83.51;101115.03;146621;573;46020;-65
2023/10/23 01:23:21;;;;;;;;;12.00;9.00;;;;;18.51;84.21;101110.56;146618;629;46016;-66
2023/10/23 01:26:32;;;;;;;;;12.00;10.67;;;;;17.09;83.30;100866.41;146624;595;46020;-66
2023/10/23 01:29:30;;;;;;;;;12.33;10.00;;;;;18.42;83.86;101105.97;146621;582;47012;-66
2023/10/23 01:32:25;;;;;;;;;15.33;11.67;;;;;18.44;84.37;101104.28;146621;625;46021;-66
2023/10/23 01:35:41;;;;;;;;;12.33;10.33;;;;;18.41;84.05;101106.84;146618;580;46016;-65
2023/10/23 01:38:38;;;;;;;;;12.67;11.00;;;;;18.38;84.71;101104.13;146624;613;46011;-65
2023/10/23 01:41:31;;;;;;;;;12.00;9.00;;;;;18.37;85.42;101102.34;146617;600;46012;-64
2023/10/23 01:44:42;;;;;;;;;12.00;10.67;;;;;18.38;85.19;101105.84;146623;619;46020;-66
2023/10/23 01:47:40;;;;;;;;;17.00;12.67;;;;;18.42;86.18;101100.72;146618;636;46016;-65
2023/10/23 01:50:36;;;;;;;;;12.33;10.33;;;;;18.50;86.42;101111.41;146622;598;46020;-65
2023/10/23 01:53:31;;;;;;;;;9.33;7.33;;;;;18.57;86.15;101109.84;146614;565;46017;-67
2023/10/23 01:56:29;;;;;;;;;14.00;10.33;;;;;18.64;86.01;101111.75;146624;601;46010;-66
2023/10/23 01:59:39;;;;;;;;;16.67;13.00;;;;;18.69;85.22;101107.50;146617;635;46016;-66
2023/10/23 02:02:31;;;;;;;;;14.25;10.75;;;;;18.74;85.68;101107.66;146620;616;48010;-66
2023/10/23 02:05:46;;;;;;;;;11.67;11.00;;;;;18.77;85.07;101105.97;146614;600;46913;-66
2023/10/23 02:08:39;;;;;;;;;13.00;11.33;;;;;18.80;84.71;101115.69;146619;631;46021;-64
2023/10/23 02:11:34;;;;;;;;;11.67;11.33;;;;;18.77;84.41;101111.22;146618;595;46915;-66
2023/10/23 02:14:36;;;;;;;;;13.00;11.00;;;;;18.73;83.98;101114.66;146621;652;47010;-65
2023/10/23 02:17:38;;;;;;;;;10.00;10.00;;;;;18.66;85.03;101108.31;146619;573;46016;-65
2023/10/23 02:20:32;;;;;;;;;12.00;10.00;;;;;18.60;84.75;101108.19;146624;580;46010;-66
2023/10/23 02:23:37;;;;;;;;;14.33;13.67;;;;;18.56;84.87;101114.19;146621;675;46014;-66
2023/10/23 02:26:42;;;;;;;;;14.67;12.33;;;;;18.52;85.42;101112.34;146614;595;46915;-68
2023/10/23 02:29:39;;;;;;;;;14.33;11.67;;;;;18.46;85.67;101107.81;146619;665;47012;-66
2023/10/23 02:32:37;;;;;;;;;18.33;12.00;;;;;18.37;85.84;101115.47;146622;651;46010;-66
2023/10/23 02:35:29;;;;;;;;;14.00;11.00;;;;;18.28;85.70;101120.47;146619;584;46016;-68
2023/10/23 02:38:24;;;;;;;;;13.67;11.67;;;;;18.24;86.48;101129.13;146625;679;46010;-68
2023/10/23 02:41:19;;;;;;;;;13.67;13.00;;;;;18.20;86.33;101130.78;146618;693;46016;-68
2023/10/23 02:44:17;;;;;;;;;12.67;11.00;;;;;18.15;86.44;101136.75;146624;565;47010;-66
2023/10/23 02:47:14;;;;;;;;;13.67;11.67;;;;;18.09;86.54;101132.22;146615;607;46016;-67
2023/10/23 02:50:06;;;;;;;;;12.75;12.00;;;;;18.02;86.74;101129.41;146622;583;46010;-67
2023/10/23 02:53:05;;;;;;;;;14.67;12.67;;;;;18.00;86.84;101135.47;146618;585;46017;-65
2023/10/23 02:56:06;;;;;;;;;15.33;11.33;;;;;17.28;87.63;101017.16;146624;649;46010;-64
2023/10/23 02:59:13;;;;;;;;;14.67;11.33;;;;;17.92;87.50;101128.25;146616;588;46924;-66
2023/10/23 03:02:08;;;;;;;;;14.00;13.00;;;;;17.88;87.45;101116.81;146625;572;46010;-67
2023/10/23 03:05:15;;;;;;;;;12.33;10.67;;;;;17.91;88.07;101122.13;146620;573;46012;-66
2023/10/23 03:08:15;;;;;;;;;15.00;12.75;;;;;17.93;87.86;101119.53;146622;591;46014;-66
2023/10/23 03:11:26;;;;;;;;;;;;;;;;;;;;;
2023/10/23 03:14:28;;;;;;;;;14.00;12.25;;;;;18.00;87.96;101119.72;146621;595;46020;-65
2023/10/23 03:17:29;;;;;;;;;15.00;10.00;;;;;18.07;87.78;101119.91;146619;651;46014;-65
2023/10/23 03:20:36;;;;;;;;;19.33;14.33;;;;;18.10;87.54;101119.97;146623;601;46010;-65
2023/10/23 03:23:30;;;;;;;;;18.00;13.33;;;;;18.13;87.64;101120.06;146617;599;46016;-66
2023/10/23 03:26:33;;;;;;;;;12.33;11.33;;;;;18.18;87.32;101134.22;146613;586;46020;-66
2023/10/23 03:29:28;;;;;;;;;15.75;13.00;;;;;18.22;87.31;101130.81;146617;573;46915;-65
2023/10/23 03:32:22;;;;;;;;;14.00;13.00;;;;;18.23;87.35;101138.75;146619;650;46020;-65
2023/10/23 03:35:14;;;;;;;;;17.67;15.00;;;;;18.24;86.83;101144.88;146617;604;46012;-65
2023/10/23 03:38:20;;;;;;;;;12.00;11.67;;;;;18.26;86.59;101147.56;146622;644;46027;-66
2023/10/23 03:41:29;;;;;;;;;13.67;12.67;;;;;18.24;86.60;101148.38;146617;611;46016;-65
2023/10/23 03:44:23;;;;;;;;;16.67;13.00;;;;;18.21;86.61;101142.16;146622;586;46034;-65
2023/10/23 03:47:19;;;;;;;;;17.00;13.00;;;;;18.19;86.94;101149.09;146619;564;46012;-66
2023/10/23 03:50:19;;;;;;;;;18.67;14.00;;;;;18.20;86.40;101150.91;146622;574;46010;-65
2023/10/23 03:53:19;;;;;;;;;15.00;13.00;;;;;18.20;86.84;101143.91;146620;615;46012;-65
2023/10/23 03:56:12;;;;;;;;;14.00;14.00;;;;;18.19;87.37;101143.84;146623;603;46010;-65
2023/10/23 03:59:05;;;;;;;;;16.00;16.00;;;;;18.22;86.90;101149.19;146616;570;46016;-67
2023/10/23 04:01:59;;;;;;;;;17.33;13.00;;;;;18.26;86.87;101147.56;146620;589;47020;-65
2023/10/23 04:05:01;;;;;;;;;16.33;13.33;;;;;18.31;87.33;101149.44;146618;626;46033;-65
2023/10/23 04:07:59;;;;;;;;;12.00;12.00;;;;;18.36;86.85;101155.69;146623;625;46011;-65
2023/10/23 04:10:55;;;;;;;;;14.67;12.67;;;;;18.38;87.13;101139.97;146617;618;46016;-66
2023/10/23 04:13:49;;;;;;;;;14.33;14.00;;;;;18.43;87.18;101155.00;146622;565;46010;-65
2023/10/23 04:16:43;;;;;;;;;13.33;12.67;;;;;18.51;87.18;101156.97;146617;592;46012;-65
2023/10/23 04:19:38;;;;;;;;;19.33;15.00;;;;;18.55;87.26;101157.06;146622;655;46020;-65
2023/10/23 04:22:38;;;;;;;;;12.33;11.00;;;;;18.60;87.23;101155.44;146613;589;46016;-65
2023/10/23 04:25:32;;;;;;;;;16.00;14.00;;;;;18.65;87.05;101160.81;146637;654;45020;-68
2023/10/23 04:28:26;;;;;;;;;13.67;13.00;;;;;18.62;86.22;101156.34;146632;593;46012;-65
2023/10/23 04:31:34;;;;;;;;;18.33;15.00;;;;;18.59;85.52;101163.28;146633;565;45021;-67
2023/10/23 04:34:27;;;;;;;;;27.75;25.75;;;;;18.53;85.70;101158.75;146629;575;45016;-65
2023/10/23 04:37:26;;;;;;;;;30.00;24.00;;;;;18.49;85.38;101171.78;146633;587;46014;-67
2023/10/23 04:40:43;;;;;;;;;25.75;21.25;;;;;18.50;85.72;101179.69;146632;576;45012;-65
2023/10/23 04:43:36;;;;;;;;;22.25;20.75;;;;;18.49;85.86;101164.78;146636;571;45011;-66
2023/10/23 04:46:46;;;;;;;;;18.50;17.25;;;;;18.45;85.17;101187.44;146633;676;46012;-66
2023/10/23 04:49:41;;;;;;;;;19.00;16.67;;;;;18.45;85.25;101174.31;146638;590;44915;-66
2023/10/23 04:52:53;;;;;;;;;18.33;15.67;;;;;18.42;84.83;101190.00;146635;673;45013;-65
2023/10/23 04:56:00;;;;;;;;;;;;;;;;;;;;;
2023/10/23 04:59:07;;;;;;;;;19.75;18.00;;;;;18.31;85.59;101193.16;146617;601;46016;-66
2023/10/23 05:01:59;;;;;;;;;19.67;16.67;;;;;18.27;85.79;101192.19;146618;566;46021;-66
2023/10/23 05:04:54;;;;;;;;;26.75;21.25;;;;;18.24;85.16;101189.50;146618;700;46012;-66
2023/10/23 05:07:50;;;;;;;;;21.33;16.00;;;;;18.20;85.78;101193.78;146613;598;46020;-66
2023/10/23 05:10:52;;;;;;;;;28.00;20.00;;;;;18.16;85.22;101191.91;146611;731;46017;-65
2023/10/23 05:13:50;;;;;;;;;21.50;17.75;;;;;18.16;85.80;101183.13;146616;644;46010;-65
2023/10/23 05:16:47;;;;;;;;;20.33;16.67;;;;;18.16;86.18;101193.63;146614;703;46016;-65
2023/10/23 05:19:39;;;;;;;;;17.67;17.00;;;;;18.16;86.36;101191.91;146622;609;46010;-66
2023/10/23 05:22:32;;;;;;;;;18.67;14.67;;;;;18.21;86.25;101194.66;146617;569;46016;-68
2023/10/23 05:25:37;;;;;;;;;20.00;18.25;;;;;17.20;85.93;100995.09;146615;565;46021;-66
2023/10/23 05:28:40;;;;;;;;;13.33;12.00;;;;;18.59;87.14;101197.41;146615;595;46039;-66
2023/10/23 05:31:34;;;;;;;;;15.67;15.00;;;;;18.94;87.78;101198.38;146619;620;47010;-66
2023/10/23 05:34:32;;;;;;;;;13.67;13.33;;;;;19.39;86.15;101200.28;146611;602;46916;-68
2023/10/23 05:37:26;;;;;;;;;15.00;14.00;;;;;19.83;82.67;101196.03;146620;564;46010;-66
2023/10/23 05:40:22;;;;;;;;;17.00;16.00;;;;;20.17;80.17;101201.09;146618;703;46014;-66
2023/10/23 05:43:22;;;;;;;;;18.33;17.00;;;;;20.49;78.91;101205.22;146621;571;46014;-67
2023/10/23 05:46:20;;;;;;;;;21.33;18.33;;;;;20.74;77.08;101198.66;146608;687;47010;-66
2023/10/23 05:49:14;;;;;;;;;16.67;16.33;;;;;21.00;76.67;101198.25;146616;575;46021;-66
2023/10/23 05:52:11;;;;;;;;;17.00;16.33;;;;;21.31;78.49;101202.25;146614;613;46016;-67
2023/10/23 05:55:09;;;;;;;;;22.00;20.00;;;;;21.76;74.92;101203.75;146619;650;46015;-67
2023/10/23 05:58:14;;;;;;;;;22.00;19.25;;;;;22.17;74.68;101203.41;146616;631;46012;-67
2023/10/23 06:01:16;;;;;;;;;24.00;19.50;;;;;22.51;74.20;101206.41;146618;621;46010;-68
2023/10/23 06:04:10;;;;;;;;;34.25;26.00;;;;;22.83;72.40;101212.91;146618;590;46014;-67
2023/10/23 06:07:18;;;;;;;;;24.00;21.50;;;;;23.06;71.28;101204.31;146620;705;47010;-67
2023/10/23 06:10:20;;;;;;;;;22.75;18.25;;;;;23.27;70.51;101216.78;146617;663;46016;-66
2023/10/23 06:13:20;;;;;;;;;22.50;20.00;;;;;23.37;69.55;101212.47;146622;566;46010;-66
2023/10/23 06:16:15;;;;;;;;;28.75;22.75;;;;;23.37;69.75;101208.06;146615;644;46016;-68
2023/10/23 06:19:10;;;;;;;;;24.25;22.25;;;;;23.34;69.82;101212.44;146620;597;46020;-67
2023/10/23 06:22:03;;;;;;;;;20.75;19.50;;;;;23.27;70.61;101217.69;146614;635;46016;-66
2023/10/23 06:24:55;;;;;;;;;24.75;22.25;;;;;23.32;70.50;101215.06;146618;574;46020;-68
2023/10/23 06:27:49;;;;;;;;;24.00;22.00;;;;;23.39;71.26;101214.22;146613;616;47014;-67
2023/10/23 06:30:54;;;;;;;;;28.75;25.50;;;;;23.41;71.61;101217.78;146620;688;46020;-67
2023/10/23 06:34:04;;;;;;;;;25.50;25.00;;;;;23.44;71.72;101212.50;146618;564;46017;-66
2023/10/23 06:37:08;;;;;;;;;29.00;21.00;;;;;23.54;71.72;101220.50;146620;588;45020;-66
2023/10/23 06:40:19;;;;;;;;;30.25;24.00;;;;;23.59;71.58;101218.78;146617;616;46014;-67
2023/10/23 06:43:13;;;;;;;;;25.75;24.00;;;;;23.63;70.35;101212.59;146617;583;46020;-67
2023/10/23 06:46:17;;;;;;;;;26.25;24.00;;;;;23.56;71.18;101210.81;146609;566;46914;-67
2023/10/23 06:49:08;;;;;;;;;23.50;20.50;;;;;23.52;72.15;101213.44;146616;629;47014;-67
2023/10/23 06:52:22;;;;;;;;;22.75;19.75;;;;;23.62;72.12;101230.25;146615;617;46012;-67
2023/10/23 06:55:24;;;;;;;;;22.25;18.50;;;;;23.78;71.56;101217.13;146614;564;46010;-66
2023/10/23 06:58:19;;;;;;;;;25.33;21.33;;;;;23.92;71.24;101208.34;146618;583;46012;-67
2023/10/23 07:01:15;;;;;;;;;27.25;24.25;;;;;24.07;70.16;101206.66;146615;630;46030;-67
2023/10/23 07:04:11;;;;;;;;;20.50;19.50;;;;;24.13;68.03;101204.91;146615;703;46016;-67
2023/10/23 07:07:04;;;;;;;;;25.00;20.25;;;;;24.03;67.74;101199.59;146618;593;47010;-67
2023/10/23 07:09:59;;;;;;;;;20.33;18.00;;;;;24.00;68.84;101203.09;146614;564;46016;-67
2023/10/23 07:12:56;;;;;;;;;20.00;17.00;;;;;23.21;69.28;101058.03;146709;578;46022;-67
2023/10/23 07:15:57;;;;;;;;;17.67;16.67;;;;;24.21;68.97;101207.59;146617;660;46016;-67
2023/10/23 07:19:00;;;;;;;;;23.00;17.33;;;;;24.29;68.67;101215.53;146619;570;47010;-68
2023/10/23 07:21:57;;;;;;;;;18.67;16.67;;;;;24.32;68.31;101210.25;146618;613;46012;-67
2023/10/23 07:24:52;;;;;;;;;20.67;17.67;;;;;24.36;69.19;101202.34;146626;590;46010;-67
2023/10/23 07:27:49;;;;;;;;;21.00;16.33;;;;;24.45;68.72;101206.78;146619;638;46016;-67
2023/10/23 07:30:48;;;;;;;;;25.00;19.67;;;;;24.56;68.64;101212.13;146623;602;46015;-67
2023/10/23 07:33:46;;;;;;;;;24.00;22.00;;;;;24.66;68.19;101211.22;146619;591;46016;-67
2023/10/23 07:37:00;;;;;;;;;21.75;19.50;;;;;24.77;67.94;101211.25;146622;656;46010;-67
2023/10/23 07:39:55;;;;;;;;;23.33;21.67;;;;;24.79;67.40;101214.78;146618;566;46014;-66
2023/10/23 07:42:47;;;;;;;;;22.75;22.25;;;;;24.78;67.63;101219.19;146622;654;46010;-66
2023/10/23 07:45:45;;;;;;;;;25.00;21.00;;;;;24.87;68.43;101228.94;146616;581;46016;-67
2023/10/23 07:48:45;;;;;;;;;27.00;25.00;;;;;24.98;68.34;101220.97;146619;583;46020;-68
2023/10/23 07:51:37;;;;;;;;;27.25;26.00;;;;;25.06;66.09;101222.75;146615;565;46016;-67
2023/10/23 07:54:33;;;;;;;;;26.00;23.25;;;;;25.09;68.49;101216.56;146622;629;46021;-66
2023/10/23 07:57:42;;;;;;;;;27.00;23.25;;;;;25.16;68.01;101226.31;146617;703;46012;-67
2023/10/23 08:00:34;;;;;;;;;24.25;23.75;;;;;25.26;67.90;101206.81;146623;629;46028;-67
2023/10/23 08:03:26;;;;;;;;;26.00;23.25;;;;;25.27;67.07;101208.59;146618;575;46016;-67
2023/10/23 08:06:25;;;;;;;;;30.50;25.50;;;;;25.34;68.07;101228.06;146621;571;46010;-66
2023/10/23 08:09:25;;;;;;;;;28.00;24.00;;;;;25.36;68.45;101223.66;146617;577;46915;-66
2023/10/23 08:12:30;;;;;;;;;25.50;22.75;;;;;24.79;68.13;101106.91;146613;597;46028;-67
2023/10/23 08:15:28;;;;;;;;;27.75;23.25;;;;;25.46;68.15;101229.81;146609;610;45041;-67
2023/10/23 08:18:24;;;;;;;;;30.00;23.33;;;;;25.55;67.80;101227.13;146614;711;46020;-66
2023/10/23 08:21:22;;;;;;;;;25.67;21.67;;;;;25.61;67.59;101226.22;146608;709;46016;-67
2023/10/23 08:24:25;;;;;;;;;26.75;20.50;;;;;25.67;67.71;101224.47;146609;613;46010;-67
2023/10/23 08:27:24;;;;;;;;;23.67;21.33;;;;;25.74;67.50;101226.19;146610;587;46012;-66
2023/10/23 08:30:31;;;;;;;;;27.50;24.50;;;;;25.79;66.71;101226.16;146613;566;47015;-66
2023/10/23 08:33:40;;;;;;;;;25.25;23.25;;;;;24.72;68.07;101022.97;146604;576;47916;-68
2023/10/23 08:36:40;;;;;;;;;24.00;21.67;;;;;25.97;66.71;101225.25;146612;576;46020;-69
2023/10/23 08:39:37;;;;;;;;;23.25;20.00;;;;;26.21;64.92;101218.94;146609;646;46017;-66
2023/10/23 08:42:36;;;;;;;;;24.50;22.75;;;;;26.39;64.72;101216.19;146614;630;46020;-67
2023/10/23 08:45:39;;;;;;;;;29.75;26.25;;;;;26.34;64.56;101215.31;146611;567;46013;-68
2023/10/23 08:48:38;;;;;;;;;32.25;25.75;;;;;26.22;66.85;101220.69;146613;564;46010;-67
2023/10/23 08:52:02;;;;;;;;;31.75;27.50;;;;;24.92;66.97;100990.19;146610;572;47014;-68
2023/10/23 08:55:03;;;;;;;;;28.50;24.50;;;;;26.33;66.48;101220.66;146612;573;46020;-67
2023/10/23 08:58:15;;;;;;;;;33.50;27.75;;;;;26.43;67.80;101212.59;146608;639;46016;-68
2023/10/23 09:01:21;;;;;;;;;28.00;25.25;;;;;26.55;67.22;101217.00;146614;596;46011;-68
2023/10/23 09:04:19;;;;;;;;;31.00;27.50;;;;;26.65;65.63;101215.16;146612;578;46012;-66
2023/10/23 09:07:13;;;;;;;;;34.00;28.75;;;;;26.69;65.18;101216.87;146612;596;47010;-68
2023/10/23 09:10:14;;;;;;;;;31.00;27.75;;;;;26.74;65.73;101216.87;146610;566;46014;-69
2023/10/23 09:13:06;;;;;;;;;32.50;27.50;;;;;26.85;65.94;101205.22;146636;618;45021;-68
2023/10/23 09:16:05;;;;;;;;;32.25;28.75;;;;;26.97;64.29;101209.56;146632;621;45017;-68
2023/10/23 09:19:09;;;;;;;;;35.00;28.25;;;;;26.99;64.57;101207.78;146636;674;46010;-68
2023/10/23 09:22:21;;;;;;;;;34.50;29.00;;;;;26.96;63.87;101191.84;146632;564;46012;-70
2023/10/23 09:25:37;;;;;;;;;27.50;25.50;;;;;27.00;61.75;101187.38;146636;708;45023;-70
2023/10/23 09:29:06;;;;;;;;;29.00;26.25;;;;;25.83;64.83;100972.06;146636;688;44016;-70
2023/10/23 09:32:06;;;;;;;;;35.25;29.50;;;;;27.11;64.78;101174.84;146637;636;45014;-71
2023/10/23 09:35:10;;;;;;;;;27.75;25.00;;;;;27.18;63.45;101168.59;146633;569;45016;-70
2023/10/23 09:38:32;;;;;;;;;33.75;29.00;;;;;27.23;63.59;101172.09;146635;595;45021;-71
2023/10/23 09:41:48;;;;;;;;;31.25;28.75;;;;;27.15;63.90;101164.19;146624;740;46012;-68
2023/10/23 09:44:46;;;;;;;;;30.00;26.00;;;;;27.16;62.64;101155.28;146635;662;46010;-71
2023/10/23 09:47:47;;;;;;;;;26.00;23.00;;;;;27.19;62.97;101157.03;146633;661;45012;-71
2023/10/23 09:50:46;;;;;;;;;30.25;24.75;;;;;27.12;62.48;101153.53;146635;618;46014;-70
2023/10/23 09:53:56;;;;;;;;;26.75;23.50;;;;;27.02;64.99;101154.53;146632;565;46013;-68
2023/10/23 09:56:59;;;;;;;;;24.00;21.75;;;;;26.95;64.47;101151.03;146630;586;47010;-70
2023/10/23 10:00:25;;;;;;;;;24.00;23.00;;;;;26.95;65.54;101143.06;146631;566;45017;-70
2023/10/23 10:03:27;;;;;;;;;24.50;23.25;;;;;27.01;65.96;101146.53;146636;634;45020;-69
2023/10/23 10:06:51;;;;;;;;;29.67;23.67;;;;;27.05;64.67;101143.84;146629;566;45013;-70
2023/10/23 10:09:52;;;;;;;;;23.33;22.00;;;;;27.02;64.86;101137.69;146635;636;45010;-70
2023/10/23 10:12:46;;;;;;;;;24.33;21.33;;;;;26.82;63.94;101137.84;146636;684;45012;-69
2023/10/23 10:15:55;;;;;;;;;25.00;23.00;;;;;25.32;63.56;100925.44;146624;643;46021;-70
2023/10/23 10:18:54;;;;;;;;;25.00;23.00;;;;;26.41;67.21;101142.59;146634;622;45913;-71
2023/10/23 10:22:18;;;;;;;;;;;;;;;;;;;;;
2023/10/23 10:25:50;;;;;;;;;20.33;18.67;;;;;25.71;67.62;101000.44;146635;579;45911;-70
2023/10/23 10:29:03;;;;;;;;;24.33;20.33;;;;;26.54;65.95;101119.47;146635;570;45020;-70
2023/10/23 10:32:20;;;;;;;;;24.33;21.33;;;;;26.64;66.14;101129.16;146632;586;46916;-71
2023/10/23 10:35:31;;;;;;;;;24.33;23.00;;;;;26.64;67.32;101118.53;146632;677;46020;-71
2023/10/23 10:38:35;;;;;;;;;25.33;22.33;;;;;26.70;66.88;101109.59;146633;608;45014;-71
2023/10/23 10:41:52;;;;;;;;;27.33;21.00;;;;;26.21;67.08;100993.88;146636;570;46014;-70
2023/10/23 10:45:22;;;;;;;;;19.67;18.33;;;;;26.95;62.52;101104.94;146636;571;45016;-71
2023/10/23 10:48:20;;;;;;;;;30.33;23.00;;;;;26.76;64.44;101095.34;146633;563;46020;-70
2023/10/23 10:51:29;;;;;;;;;23.67;20.67;;;;;26.61;65.20;101091.94;146619;608;46017;-70
2023/10/23 10:54:54;;;;;;;;;23.67;21.00;;;;;26.61;65.08;101091.94;146620;565;47010;-72
2023/10/23 10:57:53;;;;;;;;;24.00;21.33;;;;;26.41;64.44;101081.44;146618;576;45016;-70
2023/10/23 11:00:54;;;;;;;;;23.00;20.00;;;;;26.29;67.15;101081.53;146622;620;46020;-70
2023/10/23 11:03:48;;;;;;;;;21.00;20.33;;;;;26.37;66.92;101078.81;146619;595;46012;-70
2023/10/23 11:06:53;;;;;;;;;25.00;21.67;;;;;26.54;65.60;101076.91;146622;585;46025;-70
2023/10/23 11:09:48;;;;;;;;;27.33;21.00;;;;;26.59;66.75;101069.78;146618;628;46016;-70
2023/10/23 11:12:46;;;;;;;;;25.00;22.67;;;;;26.71;66.33;101072.34;146617;688;47010;-68
2023/10/23 11:16:01;;;;;;;;;25.00;19.75;;;;;26.21;65.87;100962.00;146612;719;48016;-68
2023/10/23 11:19:00;;;;;;;;;22.50;20.50;;;;;27.11;65.78;101073.72;146634;577;45022;-68
2023/10/23 11:22:21;;;;;;;;;19.00;18.75;;;;;27.27;65.13;101064.66;146628;726;46014;-69
2023/10/23 11:25:37;;;;;;;;;23.00;21.00;;;;;27.42;64.01;101066.25;146636;585;45010;-69
2023/10/23 11:28:39;;;;;;;;;24.00;20.67;;;;;27.43;63.15;101067.13;146633;637;45017;-69
2023/10/23 11:31:42;;;;;;;;;19.50;16.50;;;;;27.32;63.01;101064.59;146636;595;46010;-68
2023/10/23 11:34:47;;;;;;;;;21.00;18.33;;;;;26.10;64.02;100852.25;146635;597;44915;-69
2023/10/23 11:37:50;;;;;;;;;19.67;19.33;;;;;27.38;62.97;101057.44;146637;600;46010;-69
2023/10/23 11:41:05;;;;;;;;;22.50;20.75;;;;;27.56;65.35;101058.06;146632;566;46012;-68
2023/10/23 11:44:28;;;;;;;;;22.67;20.00;;;;;27.77;64.66;101052.47;146634;595;45021;-69
2023/10/23 11:47:43;;;;;;;;;19.25;18.25;;;;;27.93;63.08;101049.59;146634;669;46012;-69
2023/10/23 11:50:42;;;;;;;;;18.67;17.67;;;;;28.02;63.44;101044.13;146635;634;45030;-69
2023/10/23 11:53:40;;;;;;;;;19.00;17.00;;;;;28.13;63.33;101047.50;146634;582;45016;-68
2023/10/23 11:56:42;;;;;;;;;19.33;17.00;;;;;28.30;62.86;101041.88;146637;614;45020;-69
2023/10/23 11:59:52;;;;;;;;;18.33;17.33;;;;;28.47;61.22;101038.94;146632;641;46014;-70
2023/10/23 12:03:08;;;;;;;;;;;;;;;;;;;;;
2023/10/23 12:06:06;;;;;;;;;19.67;16.67;;;;;28.54;57.53;101029.94;146630;671;46014;-68
2023/10/23 12:09:04;;;;;;;;;18.33;17.00;;;;;28.42;58.91;101031.03;146635;661;45020;-68
2023/10/23 12:12:12;;;;;;;;;19.00;15.67;;;;;27.26;62.16;100827.72;146619;610;46016;-68
2023/10/23 12:15:07;;;;;;;;;18.00;16.33;;;;;28.37;59.27;101027.53;146616;563;47010;-69
2023/10/23 12:18:11;;;;;;;;;16.67;16.00;;;;;28.20;59.31;101027.81;146607;574;47016;-68
2023/10/23 12:21:37;;;;;;;;;20.00;19.33;;;;;27.94;58.59;101027.34;146615;619;46021;-69
2023/10/23 12:24:37;;;;;;;;;20.67;18.00;;;;;27.70;60.10;101031.25;146612;596;46016;-68
2023/10/23 12:27:35;;;;;;;;;16.67;15.00;;;;;27.45;58.81;101028.94;146614;584;46021;-69
2023/10/23 12:30:48;;;;;;;;;19.00;17.33;;;;;26.35;62.02;100870.56;146610;629;47012;-68
2023/10/23 12:33:48;;;;;;;;;17.67;17.33;;;;;27.21;60.17;101031.91;146612;593;46020;-67
2023/10/23 12:37:00;;;;;;;;;17.33;15.67;;;;;27.10;61.55;101029.34;146612;571;46016;-67
2023/10/23 12:40:12;;;;;;;;;18.67;15.67;;;;;26.99;59.90;101032.12;146612;595;46010;-68
2023/10/23 12:43:14;;;;;;;;;18.67;15.00;;;;;26.89;58.45;101033.16;146614;616;46013;-67
2023/10/23 12:46:16;;;;;;;;;15.00;12.67;;;;;26.79;58.13;101037.69;146613;621;47010;-69
2023/10/23 12:49:16;;;;;;;;;14.67;13.67;;;;;26.76;59.58;101035.06;146611;629;46017;-68
2023/10/23 12:52:35;;;;;;;;;17.00;13.33;;;;;26.79;59.42;101028.81;146613;577;47010;-69
2023/10/23 12:55:42;;;;;;;;;18.00;14.67;;;;;26.77;59.38;101039.47;146615;638;46014;-69
2023/10/23 12:58:41;;;;;;;;;15.00;11.33;;;;;26.80;60.26;101038.56;146613;586;47010;-68
2023/10/23 13:01:38;;;;;;;;;15.00;13.67;;;;;26.89;58.57;101036.69;146609;611;46012;-67
2023/10/23 13:04:33;;;;;;;;;15.00;12.33;;;;;26.97;58.27;101028.59;146616;577;46010;-68
2023/10/23 13:07:40;;;;;;;;;12.33;12.33;;;;;27.02;56.00;101028.56;146610;570;47012;-67
2023/10/23 13:10:34;;;;;;;;;13.67;11.33;;;;;27.02;56.77;101039.22;146615;683;46020;-67
2023/10/23 13:13:37;;;;;;;;;14.67;12.33;;;;;27.00;55.84;101035.66;146609;571;46017;-69
2023/10/23 13:16:30;;;;;;;;;15.00;12.00;;;;;26.95;57.84;101038.41;146610;581;48020;-68
2023/10/23 13:19:31;;;;;;;;;17.67;15.67;;;;;27.08;59.33;101025.84;146609;643;47013;-67
2023/10/23 13:22:34;;;;;;;;;19.33;16.33;;;;;27.22;57.49;101031.00;146613;610;47020;-67
2023/10/23 13:25:26;;;;;;;;;19.33;16.00;;;;;27.17;58.03;101025.75;146608;642;47015;-69
2023/10/23 13:28:34;;;;;;;;;14.67;13.33;;;;;27.20;60.41;101024.81;146615;632;46010;-67
2023/10/23 13:31:53;;;;;;;;;;;;;;;;;;;;;
2023/10/23 13:34:46;;;;;;;;;19.33;15.67;;;;;27.51;59.46;101018.19;146610;619;46031;-68
2023/10/23 13:38:00;;;;;;;;;22.00;18.00;;;;;27.60;59.10;101025.16;146613;571;46016;-67
2023/10/23 13:41:07;;;;;;;;;22.67;18.33;;;;;27.60;59.53;101018.06;146615;616;46020;-66
2023/10/23 13:44:03;;;;;;;;;19.33;16.33;;;;;27.49;58.21;101017.31;146606;647;47017;-67
2023/10/23 13:47:27;;;;;;;;;23.67;17.67;;;;;26.72;60.13;100913.59;146613;639;46020;-68
2023/10/23 13:50:32;;;;;;;;;17.67;17.00;;;;;27.25;59.35;101023.84;146611;583;46911;-66
2023/10/23 13:53:27;;;;;;;;;21.00;18.00;;;;;27.01;58.85;101022.38;146615;566;46020;-67
2023/10/23 13:56:33;;;;;;;;;19.00;16.67;;;;;26.79;59.76;101028.81;146611;676;46013;-69